This is the latest recevied weather packets stored in our database for station/object W1CAT. If no packets are shown the sender has not sent any weather packets the latest 10 day(s).
| Time | Temp. | Humidity | Pressure | Rain* | Wind** | Luminosity | Snow |
|---|---|---|---|---|---|---|---|
| 1777724296 | -1.11° C | 78% | - | 0 mm | - | - | - |
| 1777723993 | -1.11° C | 80% | - | 0 mm | - | - | - |
| 1777723689 | -1.11° C | 78% | - | 0 mm | - | - | - |
| 1777723386 | -1.67° C | 80% | - | 0 mm | - | - | - |
| 1777723084 | -1.67° C | 83% | - | 0 mm | - | - | - |
| 1777722780 | -2.78° C | 91% | - | 0 mm | - | - | - |
| 1777722475 | -3.33° C | 92% | - | 0 mm | - | - | - |
| 1777722173 | -2.78° C | 92% | - | 0 mm | - | - | - |
| 1777721870 | -2.78° C | 93% | - | 0 mm | - | - | - |
| 1777721568 | -2.78° C | 95% | - | 0 mm | - | - | - |
| 1777721266 | -2.78° C | 97% | - | 0 mm | - | - | - |
| 1777720963 | -2.78° C | 97% | - | 0 mm | - | - | - |
| 1777720660 | -2.78° C | 97% | - | 0 mm | - | - | - |
| 1777720357 | -3.33° C | 97% | - | 0 mm | - | - | - |
| 1777720055 | -3.89° C | 97% | - | 0 mm | - | - | - |
| 1777719752 | -4.44° C | 97% | - | 0 mm | - | - | - |
| 1777719450 | -4.44° C | 97% | - | 0 mm | - | - | - |
| 1777719146 | -3.89° C | 97% | - | 0 mm | - | - | - |
| 1777718844 | -3.89° C | 97% | - | 0 mm | - | - | - |
| 1777718541 | -3.89° C | 97% | - | 0 mm | - | - | - |
| 1777718239 | -3.89° C | 97% | - | 0 mm | - | - | - |
| 1777717937 | -3.33° C | 97% | - | 0 mm | - | - | - |
| 1777717633 | -3.33° C | 97% | - | 0 mm | - | - | - |
| 1777717330 | -3.33° C | 97% | - | 0 mm | - | - | - |
| 1777717028 | -3.33° C | 97% | - | 0 mm | - | - | - |
* Rain latest hour (hover to see other rain measurements)
** Current wind speed in m/s (hover to see current wind gust speed)